createdAt,value
2023-04-05T00:01:22.980Z,46.53
2023-04-05T00:03:55.698Z,45.30
2023-04-05T00:06:31.626Z,45.05
2023-04-05T00:09:05.169Z,44.63
2023-04-05T00:11:36.926Z,49.35
2023-04-05T00:14:08.192Z,50.48
2023-04-05T00:16:39.528Z,51.37
2023-04-05T00:19:12.645Z,48.83
2023-04-05T00:21:44.033Z,50.63
2023-04-05T00:24:16.776Z,48.98
2023-04-05T00:26:48.098Z,51.45
2023-04-05T00:29:19.661Z,49.45
2023-04-05T00:31:50.864Z,51.92
2023-04-05T00:34:21.993Z,50.40
2023-04-05T00:36:53.243Z,50.23
2023-04-05T00:39:24.376Z,48.75
2023-04-05T00:41:55.599Z,47.88
2023-04-05T00:44:27.883Z,50.05
2023-04-05T00:46:59.886Z,51.37
2023-04-05T00:49:33.517Z,54.25
2023-04-05T00:52:05.422Z,52.40
2023-04-05T00:54:39.124Z,53.23
2023-04-05T00:57:10.156Z,53.25
2023-04-05T00:59:41.433Z,50.30
2023-04-05T01:02:18.059Z,44.53
2023-04-05T01:04:51.785Z,53.90
2023-04-05T01:07:40.657Z,51.55
2023-04-05T01:10:14.529Z,52.90
2023-04-05T01:12:46.145Z,51.40
2023-04-05T01:15:17.305Z,50.20
2023-04-05T01:17:49.738Z,53.50
2023-04-05T01:20:21.661Z,52.88
2023-04-05T01:23:09.978Z,47.15
2023-04-05T01:26:07.117Z,64.85
2023-04-05T01:28:58.035Z,60.23
2023-04-05T01:31:55.623Z,68.05
2023-04-05T01:34:57.722Z,61.20
2023-04-05T01:37:34.088Z,51.45
2023-04-05T01:40:05.973Z,62.10
2023-04-05T01:42:38.197Z,53.75
2023-04-05T01:45:10.081Z,56.92
2023-04-05T01:47:41.267Z,46.98
2023-04-05T01:50:13.261Z,51.68
2023-04-05T01:52:44.625Z,57.70
2023-04-05T01:55:16.240Z,64.90
2023-04-05T01:57:47.949Z,52.58
2023-04-05T02:00:19.485Z,52.45
2023-04-05T02:02:50.794Z,51.53
2023-04-05T02:05:24.927Z,52.17
2023-04-05T02:07:56.107Z,51.53
2023-04-05T02:10:27.919Z,48.38
2023-04-05T02:12:59.182Z,55.23
2023-04-05T02:15:30.451Z,52.78
2023-04-05T02:18:03.251Z,52.93
2023-04-05T02:20:34.731Z,48.05
2023-04-05T02:23:06.343Z,47.60
2023-04-05T02:25:37.685Z,52.83
2023-04-05T02:28:11.880Z,44.70
2023-04-05T02:30:43.657Z,46.63
2023-04-05T02:33:15.094Z,45.45
2023-04-05T02:35:46.428Z,49.33
2023-04-05T02:38:17.844Z,46.10
2023-04-05T02:40:55.199Z,49.00
2023-04-05T02:43:26.286Z,48.55
2023-04-05T02:45:57.790Z,47.48
2023-04-05T02:48:29.350Z,49.40
2023-04-05T02:51:00.498Z,54.13
2023-04-05T02:53:31.658Z,49.63
2023-04-05T02:56:02.804Z,57.60
2023-04-05T02:58:34.636Z,56.25
2023-04-05T03:01:07.324Z,68.28
2023-04-05T03:03:40.689Z,49.20
2023-04-05T03:06:11.884Z,67.03
2023-04-05T03:08:47.722Z,49.67
2023-04-05T03:11:18.826Z,51.65
2023-04-05T03:13:53.102Z,51.50
2023-04-05T03:16:24.312Z,52.73
2023-04-05T03:18:58.768Z,48.75
2023-04-05T03:21:32.346Z,59.33
2023-04-05T03:24:04.151Z,48.13
2023-04-05T03:26:36.067Z,52.58
2023-04-05T03:29:10.479Z,44.88
2023-04-05T03:31:41.462Z,48.23
2023-04-05T03:34:12.772Z,48.83
2023-04-05T03:36:44.166Z,42.48
2023-04-05T03:39:16.407Z,47.15
2023-04-05T03:41:47.938Z,59.23
2023-04-05T03:44:19.180Z,45.58
2023-04-05T03:46:50.740Z,47.23
2023-04-05T03:49:21.943Z,50.25
2023-04-05T03:51:58.877Z,43.70
2023-04-05T03:54:30.328Z,38.58
2023-04-05T03:57:02.335Z,49.98
2023-04-05T03:59:36.249Z,40.33
2023-04-05T04:02:07.406Z,41.13
2023-04-05T04:04:40.440Z,38.42
2023-04-05T04:07:12.848Z,38.33
2023-04-05T04:09:44.019Z,38.95
2023-04-05T04:12:15.233Z,39.15
2023-04-05T04:14:46.557Z,42.50
2023-04-05T04:17:24.347Z,63.17
2023-04-05T04:19:57.626Z,38.17
2023-04-05T04:22:31.035Z,40.67
2023-04-05T04:25:06.191Z,35.88
2023-04-05T04:27:37.919Z,43.35
2023-04-05T04:30:14.279Z,42.78
2023-04-05T04:32:56.208Z,37.73
2023-04-05T04:35:30.081Z,37.38
2023-04-05T04:38:06.108Z,37.73
2023-04-05T04:40:44.050Z,40.52
2023-04-05T04:43:18.048Z,41.23
2023-04-05T04:45:54.146Z,32.78
2023-04-05T04:48:25.318Z,44.18
2023-04-05T04:51:00.954Z,31.45
2023-04-05T04:53:32.871Z,34.88
2023-04-05T04:56:04.021Z,30.50
2023-04-05T04:58:35.329Z,28.50
2023-04-05T05:01:11.013Z,28.27
2023-04-05T05:03:42.239Z,27.95
2023-04-05T05:06:13.509Z,27.87
2023-04-05T05:08:45.804Z,31.48
2023-04-05T05:11:17.224Z,27.67
2023-04-05T05:13:51.881Z,26.30
2023-04-05T05:16:22.406Z,29.65
2023-04-05T05:18:57.496Z,27.58
2023-04-05T05:21:29.095Z,31.30
2023-04-05T05:24:01.096Z,29.25
2023-04-05T05:26:32.380Z,28.77
2023-04-05T05:29:06.287Z,28.17
2023-04-05T05:31:37.652Z,27.50
2023-04-05T05:34:08.880Z,26.55
2023-04-05T05:36:39.993Z,25.43
2023-04-05T05:39:11.392Z,27.55
2023-04-05T05:41:43.773Z,30.60
2023-04-05T05:44:15.170Z,34.10
2023-04-05T05:46:47.488Z,26.62
2023-04-05T05:49:19.148Z,29.52
2023-04-05T05:51:50.343Z,27.93
2023-04-05T05:54:21.574Z,26.68
2023-04-05T05:56:52.690Z,28.55
2023-04-05T05:59:25.062Z,24.50
2023-04-05T06:01:56.802Z,24.55
2023-04-05T06:04:29.131Z,24.57
2023-04-05T06:07:01.098Z,30.50
2023-04-05T06:09:33.898Z,21.33
2023-04-05T06:12:05.720Z,19.92
2023-04-05T06:14:38.768Z,19.52
2023-04-05T06:17:09.342Z,15.70
2023-04-05T06:19:40.725Z,21.48
2023-04-05T06:22:12.305Z,18.73
2023-04-05T06:24:43.531Z,25.10
2023-04-05T06:27:15.762Z,16.57
2023-04-05T06:29:46.909Z,19.40
2023-04-05T06:32:18.372Z,15.35
2023-04-05T06:34:50.160Z,16.02
2023-04-05T06:37:24.374Z,14.85
2023-04-05T06:39:53.811Z,15.10
2023-04-05T06:42:26.555Z,16.75
2023-04-05T06:44:57.622Z,19.42
2023-04-05T06:47:28.843Z,19.45
2023-04-05T06:50:00.161Z,17.20
2023-04-05T06:52:31.765Z,24.10
2023-04-05T06:55:04.634Z,15.93
2023-04-05T06:57:35.853Z,20.15
2023-04-05T07:00:11.955Z,16.45
2023-04-05T07:05:14.029Z,55.92
2023-04-05T07:07:46.897Z,19.60
2023-04-05T07:10:19.990Z,19.95
2023-04-05T07:12:51.254Z,21.42
2023-04-05T07:15:22.610Z,22.40
2023-04-05T07:17:53.765Z,20.43
2023-04-05T07:20:25.306Z,19.35
2023-04-05T07:22:57.477Z,20.55
2023-04-05T07:25:29.331Z,20.00
2023-04-05T07:28:00.699Z,23.73
2023-04-05T07:30:33.518Z,21.27
2023-04-05T07:33:05.401Z,20.05
2023-04-05T07:35:37.221Z,23.60
2023-04-05T07:38:08.783Z,23.32
2023-04-05T07:40:40.840Z,23.20
2023-04-05T07:43:15.123Z,19.00
2023-04-05T07:45:46.804Z,20.05
2023-04-05T07:48:18.841Z,20.62
2023-04-05T07:50:51.056Z,22.17
2023-04-05T07:53:22.531Z,26.55
2023-04-05T07:55:54.664Z,19.15
2023-04-05T07:58:34.606Z,20.55
2023-04-05T08:01:07.904Z,20.70
2023-04-05T08:03:40.723Z,18.65
2023-04-05T08:06:16.246Z,25.02
2023-04-05T08:08:47.770Z,22.90
2023-04-05T08:11:20.368Z,20.60
2023-04-05T08:13:52.142Z,23.00
2023-04-05T08:16:23.416Z,19.23
2023-04-05T08:18:54.594Z,18.40
2023-04-05T08:21:27.755Z,31.27
2023-04-05T08:23:59.377Z,20.52
2023-04-05T08:26:31.116Z,19.73
2023-04-05T08:31:51.650Z,18.55
2023-04-05T08:34:22.986Z,24.80
2023-04-05T08:36:54.187Z,27.85
2023-04-05T08:39:32.050Z,38.05
2023-04-05T08:42:23.797Z,24.43
2023-04-05T08:44:55.911Z,24.18
2023-04-05T08:47:27.708Z,29.27
2023-04-05T08:49:59.142Z,23.47
2023-04-05T08:52:32.362Z,28.35
2023-04-05T08:55:03.592Z,20.23
2023-04-05T08:57:36.968Z,22.75
2023-04-05T09:00:10.207Z,22.30
2023-04-05T09:02:42.447Z,24.43
2023-04-05T09:05:15.125Z,20.57
2023-04-05T09:07:48.710Z,19.73
2023-04-05T09:10:21.727Z,26.77
2023-04-05T09:12:54.363Z,19.20
2023-04-05T09:15:28.181Z,19.45
2023-04-05T09:18:00.232Z,20.55
2023-04-05T09:20:31.894Z,21.10
2023-04-05T09:23:03.767Z,24.92
2023-04-05T09:25:43.580Z,19.62
2023-04-05T09:28:15.342Z,20.52
2023-04-05T09:30:50.662Z,20.32
2023-04-05T09:33:23.736Z,23.70
2023-04-05T09:35:56.307Z,25.15
2023-04-05T09:38:48.600Z,22.65
2023-04-05T09:41:19.734Z,21.52
2023-04-05T09:43:50.902Z,28.10
2023-04-05T09:46:42.958Z,26.02
2023-04-05T09:49:15.740Z,16.82
2023-04-05T09:51:48.281Z,22.82
2023-04-05T09:54:19.941Z,18.00
2023-04-05T09:56:56.248Z,23.42
2023-04-05T09:59:27.758Z,17.75
2023-04-05T10:01:59.247Z,22.13
2023-04-05T10:04:31.795Z,20.32
2023-04-05T10:07:03.150Z,21.23
2023-04-05T10:09:35.653Z,22.42
2023-04-05T10:12:08.558Z,19.55
2023-04-05T10:14:40.091Z,17.60
2023-04-05T10:17:13.756Z,22.05
2023-04-05T10:20:05.451Z,23.73
2023-04-05T10:22:56.595Z,19.17
2023-04-05T10:25:56.445Z,18.35
2023-04-05T10:28:36.739Z,21.20
2023-04-05T10:31:38.188Z,22.62
2023-04-05T10:34:10.053Z,22.05
2023-04-05T10:37:03.521Z,19.82
2023-04-05T10:39:46.208Z,24.67
2023-04-05T10:42:25.565Z,22.30
2023-04-05T10:45:00.478Z,20.62
2023-04-05T10:47:33.555Z,21.12
2023-04-05T10:50:07.029Z,18.70
2023-04-05T10:52:39.979Z,17.90
2023-04-05T10:55:12.867Z,23.70
2023-04-05T10:57:46.187Z,21.12
2023-04-05T11:00:18.980Z,22.42
2023-04-05T11:02:54.654Z,18.70
2023-04-05T11:05:38.701Z,23.95
2023-04-05T11:08:13.202Z,18.95
2023-04-05T11:10:46.886Z,20.82
2023-04-05T11:13:18.439Z,21.42
2023-04-05T11:15:51.539Z,21.73
2023-04-05T11:18:29.111Z,19.95
2023-04-05T11:21:11.920Z,29.37
2023-04-05T11:24:09.926Z,24.55
2023-04-05T11:26:55.486Z,27.13
2023-04-05T11:29:53.783Z,23.20
2023-04-05T11:32:26.102Z,22.10
2023-04-05T11:35:09.382Z,24.37
2023-04-05T11:38:06.773Z,23.25
2023-04-05T11:40:55.803Z,28.05
2023-04-05T11:43:31.766Z,29.40
2023-04-05T11:48:39.387Z,26.25
2023-04-05T11:51:12.472Z,27.45
2023-04-05T11:53:44.949Z,24.75
2023-04-05T11:56:17.254Z,26.07
2023-04-05T11:58:49.175Z,26.42
2023-04-05T12:01:22.305Z,25.62
2023-04-05T12:03:58.848Z,24.67
2023-04-05T12:06:31.455Z,28.40
2023-04-05T12:09:03.581Z,29.45
2023-04-05T12:11:35.869Z,24.95
2023-04-05T12:14:08.119Z,22.62
2023-04-05T12:16:40.910Z,22.67
2023-04-05T12:19:12.483Z,29.65
2023-04-05T12:21:43.869Z,27.22
2023-04-05T12:24:15.429Z,25.08
2023-04-05T12:26:46.912Z,24.07
2023-04-05T12:29:19.172Z,31.52
2023-04-05T12:31:52.087Z,30.90
2023-04-05T12:34:30.052Z,24.00
2023-04-05T12:37:04.151Z,24.70
2023-04-05T12:39:35.943Z,27.82
2023-04-05T12:42:07.544Z,26.17
2023-04-05T12:44:38.668Z,26.05
2023-04-05T12:47:11.096Z,24.92
2023-04-05T12:49:48.714Z,23.92
2023-04-05T12:52:24.374Z,30.70
2023-04-05T12:54:58.784Z,27.22
2023-04-05T12:57:37.291Z,30.82
2023-04-05T13:00:10.116Z,30.77
2023-04-05T13:02:42.586Z,34.53
2023-04-05T13:05:14.002Z,26.62
2023-04-05T13:07:45.414Z,30.40
2023-04-05T13:10:19.294Z,36.70
2023-04-05T13:12:52.473Z,28.47
2023-04-05T13:15:24.197Z,34.53
2023-04-05T13:17:57.348Z,28.38
2023-04-05T13:20:29.296Z,25.97
2023-04-05T13:23:03.093Z,32.42
2023-04-05T13:25:40.907Z,38.02
2023-04-05T13:28:12.670Z,31.35
2023-04-05T13:30:45.313Z,29.52
2023-04-05T13:33:21.155Z,30.32
2023-04-05T13:35:56.317Z,32.58
2023-04-05T13:38:35.260Z,40.12
2023-04-05T13:41:08.128Z,35.90
2023-04-05T13:43:40.803Z,35.13
2023-04-05T13:46:12.300Z,37.83
2023-04-05T13:48:46.823Z,40.80
2023-04-05T13:51:18.189Z,41.45
2023-04-05T13:53:49.739Z,33.92
2023-04-05T13:56:21.395Z,42.10
2023-04-05T13:58:55.092Z,38.17
2023-04-05T14:01:25.414Z,39.92
2023-04-05T14:04:11.169Z,38.88
2023-04-05T14:06:43.290Z,43.20
2023-04-05T14:09:15.176Z,46.68
2023-04-05T14:11:46.853Z,39.08
2023-04-05T14:14:18.182Z,41.05
2023-04-05T14:16:49.395Z,40.28
2023-04-05T14:19:22.365Z,36.58
2023-04-05T14:21:54.994Z,38.60
2023-04-05T14:35:26.314Z,41.73
2023-04-05T14:38:05.989Z,44.23
2023-04-05T14:40:37.374Z,35.03
2023-04-05T15:09:51.659Z,34.15
2023-04-05T15:12:03.780Z,37.03
2023-04-05T15:21:15.713Z,36.42
2023-04-05T15:24:06.102Z,36.67
2023-04-05T15:26:42.525Z,32.38
2023-04-05T15:29:26.812Z,35.70
2023-04-05T15:38:22.592Z,33.60
2023-04-05T15:40:59.747Z,31.57
2023-04-05T15:43:32.290Z,30.35
2023-04-05T15:46:05.358Z,29.10
2023-04-05T15:48:37.809Z,32.85
2023-04-05T15:51:11.411Z,36.80
2023-04-05T15:53:42.669Z,31.50
2023-04-05T15:56:14.302Z,27.70
2023-04-05T15:58:46.637Z,29.15
2023-04-05T16:01:18.240Z,24.80
2023-04-05T16:03:52.993Z,27.32
2023-04-05T16:06:27.200Z,26.12
2023-04-05T16:08:59.055Z,27.15
2023-04-05T16:11:30.661Z,27.17
2023-04-05T16:14:02.711Z,27.35
2023-04-05T16:16:45.556Z,28.30
2023-04-05T16:19:09.180Z,31.90
2023-04-05T16:21:44.968Z,32.40
2023-04-05T16:24:16.234Z,29.07
2023-04-05T16:26:47.488Z,26.50
2023-04-05T16:29:29.658Z,30.40
2023-04-05T16:31:59.024Z,27.70
2023-04-05T16:34:31.197Z,33.28
2023-04-05T16:37:02.370Z,30.02
2023-04-05T16:39:36.418Z,28.85
2023-04-05T16:42:07.548Z,33.02
2023-04-05T16:44:39.125Z,29.40
2023-04-05T16:47:10.476Z,32.28
2023-04-05T16:49:44.554Z,26.52
2023-04-05T16:52:17.778Z,31.57
2023-04-05T16:55:01.592Z,27.80
2023-04-05T16:57:34.476Z,31.12
2023-04-05T17:02:58.579Z,28.80
2023-04-05T17:05:33.594Z,28.27
2023-04-05T17:08:24.855Z,30.62
2023-04-05T17:14:29.768Z,32.03
2023-04-05T17:17:09.369Z,31.48
2023-04-05T17:19:40.514Z,31.80
2023-04-05T17:22:12.840Z,35.38
2023-04-05T17:24:44.055Z,28.65
2023-04-05T17:27:15.537Z,32.80
2023-04-05T17:29:46.747Z,31.48
2023-04-05T17:32:18.005Z,33.05
2023-04-05T17:34:49.698Z,32.83
2023-04-05T17:37:21.086Z,32.83
2023-04-05T17:40:09.446Z,34.67
2023-04-05T17:42:41.793Z,30.62
2023-04-05T17:45:14.333Z,28.38
2023-04-05T17:47:45.737Z,31.25
2023-04-05T17:50:17.301Z,32.20
2023-04-05T17:52:49.315Z,31.20
2023-04-05T17:55:20.716Z,29.25
2023-04-05T17:57:52.160Z,33.88
2023-04-05T18:00:23.955Z,32.85
2023-04-05T18:03:06.010Z,31.33
2023-04-05T18:05:33.222Z,36.93
2023-04-05T18:08:04.644Z,33.95
2023-04-05T18:10:38.954Z,32.00
2023-04-05T18:13:10.204Z,31.12
2023-04-05T18:15:44.839Z,36.42
2023-04-05T18:18:16.033Z,31.97
2023-04-05T18:20:47.240Z,36.13
2023-04-05T18:23:19.637Z,35.13
2023-04-05T18:25:51.021Z,33.75
2023-04-05T18:28:23.699Z,31.02
2023-04-05T18:30:57.658Z,37.45
2023-04-05T18:33:28.807Z,34.10
2023-04-05T18:36:03.177Z,32.78
2023-04-05T18:38:37.265Z,34.40
2023-04-05T18:41:09.659Z,32.80
2023-04-05T18:43:43.969Z,37.60
2023-04-05T18:46:16.967Z,33.88
2023-04-05T18:48:50.011Z,34.98
2023-04-05T18:51:23.320Z,33.63
2023-04-05T18:54:21.166Z,31.68
2023-04-05T18:56:54.575Z,37.75
2023-04-05T18:59:26.150Z,32.53
2023-04-05T19:01:57.409Z,38.15
2023-04-05T19:04:28.571Z,37.42
2023-04-05T19:06:59.869Z,34.50
2023-04-05T19:09:31.219Z,37.45
2023-04-05T19:12:02.575Z,34.70
2023-04-05T19:14:34.932Z,39.40
2023-04-05T19:17:07.398Z,43.70
2023-04-05T19:19:38.547Z,36.65
2023-04-05T19:22:11.030Z,33.35
2023-04-05T19:24:43.480Z,32.25
2023-04-05T19:27:19.770Z,36.55
2023-04-05T19:29:50.150Z,38.02
2023-04-05T19:32:27.008Z,37.53
2023-04-05T19:35:03.956Z,35.83
2023-04-05T19:37:35.198Z,37.17
2023-04-05T19:40:07.343Z,33.28
2023-04-05T19:42:39.749Z,34.88
2023-04-05T19:45:16.030Z,34.70
2023-04-05T19:47:49.495Z,37.30
2023-04-05T19:50:43.479Z,35.43
2023-04-05T19:53:17.050Z,34.98
2023-04-05T19:55:48.925Z,35.68
2023-04-05T19:58:22.506Z,37.03
2023-04-05T20:00:56.793Z,34.50
2023-04-05T20:03:39.754Z,36.10
2023-04-05T20:06:18.048Z,38.35
2023-04-05T20:08:50.400Z,34.35
2023-04-05T20:11:23.629Z,35.03
2023-04-05T20:13:59.415Z,35.00
2023-04-05T20:16:35.403Z,39.80
2023-04-05T20:19:13.578Z,34.92
2023-04-05T20:21:45.864Z,33.45
2023-04-05T20:24:21.036Z,32.45
2023-04-05T20:26:53.808Z,36.40
2023-04-05T20:29:28.030Z,33.63
2023-04-05T20:31:59.494Z,33.02
2023-04-05T20:34:33.639Z,32.55
2023-04-05T20:37:07.865Z,36.75
2023-04-05T20:39:39.218Z,32.90
2023-04-05T20:42:11.183Z,37.67
2023-04-05T20:44:45.411Z,33.65
2023-04-05T20:47:16.693Z,32.95
2023-04-05T20:49:51.392Z,38.17
2023-04-05T20:52:22.618Z,35.00
2023-04-05T20:54:53.838Z,33.67
2023-04-05T20:57:25.107Z,33.30
2023-04-05T20:59:56.749Z,32.83
2023-04-05T21:02:28.016Z,32.05
2023-04-05T21:04:59.366Z,35.52
2023-04-05T21:07:30.709Z,33.38
2023-04-05T21:10:01.970Z,35.08
2023-04-05T21:12:33.511Z,32.98
2023-04-05T21:15:05.070Z,34.83
2023-04-05T21:17:39.365Z,34.45
2023-04-05T21:20:11.355Z,34.15
2023-04-05T21:22:42.689Z,35.88
2023-04-05T21:25:14.066Z,34.85
2023-04-05T21:27:45.384Z,34.13
2023-04-05T21:30:17.835Z,35.40
2023-04-05T21:32:49.144Z,34.30
2023-04-05T21:35:21.972Z,32.05
2023-04-05T21:37:53.341Z,32.33
2023-04-05T21:40:24.769Z,36.20
2023-04-05T21:42:56.149Z,33.73
2023-04-05T21:45:27.819Z,34.80
2023-04-05T21:48:00.303Z,35.95
2023-04-05T21:50:31.939Z,31.05
2023-04-05T21:53:06.673Z,33.40
2023-04-05T21:55:37.899Z,32.23
2023-04-05T21:58:09.731Z,32.95
2023-04-05T22:00:44.005Z,37.05
2023-04-05T22:03:15.475Z,31.73
2023-04-05T22:05:56.467Z,30.50
2023-04-05T22:08:32.053Z,31.50
2023-04-05T22:11:04.732Z,33.40
2023-04-05T22:13:36.083Z,32.95
2023-04-05T22:16:09.612Z,33.73
2023-04-05T22:18:45.389Z,39.10
2023-04-05T22:21:18.432Z,34.95
2023-04-05T22:23:49.776Z,35.58
2023-04-05T22:26:20.966Z,34.25
2023-04-05T22:28:52.471Z,35.68
2023-04-05T22:31:28.133Z,38.53
2023-04-05T22:33:59.596Z,37.53
2023-04-05T22:36:32.730Z,38.55
2023-04-05T22:39:05.475Z,36.93
2023-04-05T22:41:40.096Z,38.20
2023-04-05T22:44:11.350Z,38.10
2023-04-05T22:46:45.421Z,32.80
2023-04-05T22:49:16.764Z,37.85
2023-04-05T22:51:49.246Z,37.93
2023-04-05T22:54:23.257Z,38.28
2023-04-05T22:56:54.912Z,35.73
2023-04-05T22:59:26.398Z,41.05
2023-04-05T23:02:00.581Z,37.60
2023-04-05T23:04:31.970Z,34.85
2023-04-05T23:07:04.651Z,40.52
2023-04-05T23:09:37.594Z,42.40
2023-04-05T23:12:09.149Z,42.73
2023-04-05T23:14:43.616Z,40.25
2023-04-05T23:17:14.819Z,39.18
2023-04-05T23:19:46.210Z,39.88
2023-04-05T23:22:17.386Z,41.65
2023-04-05T23:24:48.665Z,37.42
2023-04-05T23:27:19.903Z,39.33
2023-04-05T23:29:51.281Z,37.78
2023-04-05T23:32:22.853Z,40.88
2023-04-05T23:34:54.292Z,45.65
2023-04-05T23:37:26.593Z,41.48
2023-04-05T23:39:57.868Z,40.95
2023-04-05T23:42:30.494Z,45.35
2023-04-05T23:45:06.074Z,43.08
2023-04-05T23:47:38.677Z,44.00
2023-04-05T23:50:11.292Z,45.52
2023-04-05T23:52:42.542Z,42.20
2023-04-05T23:55:14.206Z,45.03
2023-04-05T23:57:45.513Z,40.10
